createdAt,value
2023-05-09T00:00:30.000Z,0
2023-05-09T00:01:46.000Z,0
2023-05-09T00:03:03.000Z,0
2023-05-09T00:04:19.000Z,0
2023-05-09T00:05:36.000Z,0
2023-05-09T00:06:52.000Z,0
2023-05-09T00:08:09.000Z,0
2023-05-09T00:09:26.000Z,0
2023-05-09T00:10:42.000Z,0
2023-05-09T00:11:59.000Z,0
2023-05-09T00:13:15.000Z,0
2023-05-09T00:14:32.000Z,0
2023-05-09T00:15:48.000Z,0
2023-05-09T00:17:04.000Z,0
2023-05-09T00:18:21.000Z,0
2023-05-09T00:19:37.000Z,0
2023-05-09T00:20:54.000Z,0
2023-05-09T00:22:10.000Z,0
2023-05-09T00:23:27.000Z,0
2023-05-09T00:24:43.000Z,0
2023-05-09T00:26:00.000Z,0
2023-05-09T00:27:16.000Z,0
2023-05-09T00:28:33.000Z,0
2023-05-09T00:29:49.000Z,0
2023-05-09T00:31:06.000Z,0
2023-05-09T00:32:22.000Z,0
2023-05-09T00:33:39.000Z,0
2023-05-09T00:34:55.000Z,0
2023-05-09T00:36:11.000Z,0
2023-05-09T00:37:28.000Z,0
2023-05-09T00:38:44.000Z,0
2023-05-09T00:40:01.000Z,0
2023-05-09T00:41:18.000Z,0
2023-05-09T00:42:34.000Z,0
2023-05-09T00:43:51.000Z,0
2023-05-09T00:45:07.000Z,0
2023-05-09T00:46:24.000Z,0
2023-05-09T00:47:40.000Z,0
2023-05-09T00:48:57.000Z,0
2023-05-09T00:50:13.000Z,0
2023-05-09T00:51:29.000Z,0
2023-05-09T00:52:46.000Z,0
2023-05-09T00:54:02.000Z,0
2023-05-09T00:55:19.000Z,0
2023-05-09T00:56:35.000Z,0
2023-05-09T00:57:52.000Z,0
2023-05-09T00:59:08.000Z,0
2023-05-09T01:00:25.000Z,0
2023-05-09T01:01:41.000Z,0
2023-05-09T01:02:58.000Z,0
2023-05-09T01:04:14.000Z,0
2023-05-09T01:05:31.000Z,0
2023-05-09T01:06:48.000Z,0
2023-05-09T01:08:03.000Z,0
2023-05-09T01:09:20.000Z,0
2023-05-09T01:10:36.000Z,0
2023-05-09T01:11:53.000Z,0
2023-05-09T01:13:09.000Z,0
2023-05-09T01:14:26.000Z,0
2023-05-09T01:15:43.000Z,0
2023-05-09T01:16:59.000Z,0
2023-05-09T01:18:16.000Z,0
2023-05-09T01:19:32.000Z,0
2023-05-09T01:20:49.000Z,0
2023-05-09T01:22:05.000Z,0
2023-05-09T01:23:22.000Z,0
2023-05-09T01:24:38.000Z,0
2023-05-09T01:25:54.000Z,0
2023-05-09T01:27:11.000Z,0
2023-05-09T01:28:27.000Z,0
2023-05-09T01:29:44.000Z,0
2023-05-09T01:31:00.000Z,0
2023-05-09T01:32:17.000Z,0
2023-05-09T01:33:33.000Z,0
2023-05-09T01:34:50.000Z,0
2023-05-09T01:36:06.000Z,0
2023-05-09T01:37:23.000Z,0
2023-05-09T01:38:39.000Z,0
2023-05-09T01:39:56.000Z,0
2023-05-09T01:41:12.000Z,0
2023-05-09T01:42:28.000Z,0
2023-05-09T01:43:45.000Z,0
2023-05-09T01:45:01.000Z,0
2023-05-09T01:46:18.000Z,0
2023-05-09T01:47:35.000Z,0
2023-05-09T01:48:51.000Z,0
2023-05-09T01:50:08.000Z,0
2023-05-09T01:51:24.000Z,0
2023-05-09T01:52:41.000Z,0
2023-05-09T01:53:57.000Z,0
2023-05-09T01:55:14.000Z,0
2023-05-09T01:56:30.000Z,0
2023-05-09T01:57:46.000Z,0
2023-05-09T01:59:03.000Z,0
2023-05-09T02:00:19.000Z,0
2023-05-09T02:01:36.000Z,0
2023-05-09T02:02:52.000Z,0
2023-05-09T02:04:09.000Z,0
2023-05-09T02:05:25.000Z,0
2023-05-09T02:06:42.000Z,0
2023-05-09T02:07:58.000Z,0
2023-05-09T02:09:15.000Z,0
2023-05-09T02:10:31.000Z,0
2023-05-09T02:11:48.000Z,0
2023-05-09T02:13:05.000Z,0
2023-05-09T02:14:21.000Z,0
2023-05-09T02:15:37.000Z,0
2023-05-09T02:16:53.000Z,0
2023-05-09T02:18:10.000Z,0
2023-05-09T02:19:26.000Z,0
2023-05-09T02:20:42.000Z,0
2023-05-09T02:21:59.000Z,0
2023-05-09T02:23:15.000Z,0
2023-05-09T02:24:32.000Z,0
2023-05-09T02:25:48.000Z,0
2023-05-09T02:27:05.000Z,0
2023-05-09T02:28:22.000Z,0
2023-05-09T02:29:38.000Z,0
2023-05-09T02:30:55.000Z,0
2023-05-09T02:32:11.000Z,0
2023-05-09T02:33:28.000Z,0
2023-05-09T02:34:44.000Z,0
2023-05-09T02:36:01.000Z,0
2023-05-09T02:37:17.000Z,0
2023-05-09T02:38:33.000Z,0
2023-05-09T02:39:50.000Z,0
2023-05-09T02:41:06.000Z,0
2023-05-09T02:42:23.000Z,0
2023-05-09T02:43:39.000Z,0
2023-05-09T02:44:56.000Z,0
2023-05-09T02:46:12.000Z,0
2023-05-09T02:47:29.000Z,0
2023-05-09T02:48:45.000Z,0
2023-05-09T02:50:02.000Z,0
2023-05-09T02:51:18.000Z,0
2023-05-09T02:52:35.000Z,0
2023-05-09T02:53:51.000Z,0
2023-05-09T02:55:07.000Z,0
2023-05-09T02:56:24.000Z,0
2023-05-09T02:57:40.000Z,0
2023-05-09T02:58:57.000Z,0
2023-05-09T03:00:14.000Z,0
2023-05-09T03:01:30.000Z,0
2023-05-09T03:02:47.000Z,0
2023-05-09T03:04:03.000Z,0
2023-05-09T03:05:20.000Z,0
2023-05-09T03:06:36.000Z,0
2023-05-09T03:07:53.000Z,0
2023-05-09T03:09:09.000Z,0
2023-05-09T03:10:25.000Z,0
2023-05-09T03:11:42.000Z,0
2023-05-09T03:12:58.000Z,0
2023-05-09T03:14:15.000Z,0
2023-05-09T03:15:31.000Z,0
2023-05-09T03:16:48.000Z,4
2023-05-09T03:18:04.000Z,0
2023-05-09T03:19:21.000Z,0
2023-05-09T03:20:37.000Z,4
2023-05-09T03:21:54.000Z,4
2023-05-09T03:23:10.000Z,4
2023-05-09T03:24:27.000Z,4
2023-05-09T03:25:44.000Z,8
2023-05-09T03:26:59.000Z,8
2023-05-09T03:28:16.000Z,12
2023-05-09T03:29:32.000Z,8
2023-05-09T03:30:49.000Z,12
2023-05-09T03:32:05.000Z,12
2023-05-09T03:33:22.000Z,12
2023-05-09T03:34:39.000Z,16
2023-05-09T03:35:55.000Z,20
2023-05-09T03:37:12.000Z,24
2023-05-09T03:38:28.000Z,36
2023-05-09T03:39:45.000Z,40
2023-05-09T03:41:01.000Z,52
2023-05-09T03:42:18.000Z,64
2023-05-09T03:43:34.000Z,76
2023-05-09T03:44:50.000Z,92
2023-05-09T03:46:07.000Z,112
2023-05-09T03:47:23.000Z,128
2023-05-09T03:48:40.000Z,148
2023-05-09T03:49:56.000Z,172
2023-05-09T03:51:13.000Z,208
2023-05-09T03:52:29.000Z,240
2023-05-09T03:53:46.000Z,280
2023-05-09T03:55:02.000Z,300
2023-05-09T03:56:19.000Z,304
2023-05-09T03:57:36.000Z,316
2023-05-09T03:58:52.000Z,348
2023-05-09T04:00:08.000Z,416
2023-05-09T04:01:24.000Z,496
2023-05-09T04:02:41.000Z,552
2023-05-09T04:03:57.000Z,612
2023-05-09T04:05:14.000Z,660
2023-05-09T04:06:31.000Z,688
2023-05-09T04:07:47.000Z,712
2023-05-09T04:09:04.000Z,724
2023-05-09T04:10:20.000Z,736
2023-05-09T04:11:37.000Z,740
2023-05-09T04:12:53.000Z,764
2023-05-09T04:14:10.000Z,824
2023-05-09T04:15:26.000Z,944
2023-05-09T04:16:42.000Z,1108
2023-05-09T04:17:59.000Z,1280
2023-05-09T04:19:15.000Z,1392
2023-05-09T04:20:32.000Z,1480
2023-05-09T04:21:48.000Z,1584
2023-05-09T04:23:05.000Z,1636
2023-05-09T04:24:21.000Z,1700
2023-05-09T04:25:38.000Z,1844
2023-05-09T04:26:54.000Z,2068
2023-05-09T04:28:11.000Z,2332
2023-05-09T04:29:27.000Z,2536
2023-05-09T04:33:17.000Z,2608
2023-05-09T04:34:34.000Z,2600
2023-05-09T04:35:49.000Z,2416
2023-05-09T04:37:06.000Z,2348
2023-05-09T04:38:23.000Z,2380
2023-05-09T04:39:39.000Z,2476
2023-05-09T04:40:56.000Z,2644
2023-05-09T04:42:12.000Z,2808
2023-05-09T04:43:29.000Z,3044
2023-05-09T04:46:02.000Z,3536
2023-05-09T04:47:18.000Z,3392
2023-05-09T04:48:33.000Z,2976
2023-05-09T04:51:07.000Z,2672
2023-05-09T04:52:23.000Z,2588
2023-05-09T04:53:40.000Z,2404
2023-05-09T04:54:56.000Z,2208
2023-05-09T04:56:13.000Z,2032
2023-05-09T04:57:29.000Z,2036
2023-05-09T04:58:46.000Z,2056
2023-05-09T05:00:02.000Z,2092
2023-05-09T05:01:19.000Z,1984
2023-05-09T05:02:35.000Z,1832
2023-05-09T05:03:52.000Z,1800
2023-05-09T05:06:24.000Z,2084
2023-05-09T05:10:13.000Z,2020
2023-05-09T05:11:29.000Z,2088
2023-05-09T05:15:18.000Z,2464
2023-05-09T05:21:41.000Z,2324
2023-05-09T05:25:30.000Z,2452
2023-05-09T05:51:01.000Z,5616
2023-05-09T05:57:23.000Z,6004
2023-05-09T05:58:40.000Z,6356
2023-05-09T06:01:13.000Z,6936
2023-05-09T06:06:19.000Z,9456
2023-05-09T06:08:52.000Z,10268
2023-05-09T06:11:24.000Z,11532
2023-05-09T06:13:57.000Z,12280
2023-05-09T06:19:03.000Z,12308
2023-05-09T06:20:20.000Z,12568
2023-05-09T06:22:53.000Z,13492
2023-05-09T06:24:10.000Z,14244
2023-05-09T06:26:43.000Z,16128
2023-05-09T06:27:59.000Z,17440
2023-05-09T06:29:15.000Z,18016
2023-05-09T06:31:48.000Z,19808
2023-05-09T06:33:05.000Z,19328
2023-05-09T06:34:21.000Z,18368
2023-05-09T06:38:11.000Z,15052
2023-05-09T06:39:27.000Z,15344
2023-05-09T06:42:00.000Z,15392
2023-05-09T06:43:16.000Z,14064
2023-05-09T06:45:49.000Z,13080
2023-05-09T06:49:39.000Z,13204
2023-05-09T06:50:55.000Z,12252
2023-05-09T06:52:12.000Z,11432
2023-05-09T06:59:51.000Z,13516
2023-05-09T07:03:41.000Z,13316
2023-05-09T07:04:57.000Z,13604
2023-05-09T07:08:46.000Z,17216
2023-05-09T07:15:09.000Z,21664
2023-05-09T07:18:58.000Z,26528
2023-05-09T07:20:15.000Z,28480
2023-05-09T07:22:48.000Z,30944
2023-05-09T07:24:05.000Z,33600
2023-05-09T07:29:10.000Z,36864
2023-05-09T07:33:00.000Z,60384
2023-05-09T07:39:22.000Z,66720
2023-05-09T07:52:08.000Z,43968
2023-05-09T07:55:57.000Z,51488
2023-05-09T07:57:13.000Z,50720
2023-05-09T08:04:52.000Z,50272
2023-05-09T08:09:59.000Z,39488
2023-05-09T08:35:29.000Z,35712
2023-05-09T08:41:51.000Z,43136
2023-05-09T08:43:08.000Z,51392
2023-05-09T08:46:57.000Z,55648
2023-05-09T08:49:31.000Z,70144
2023-05-09T08:52:04.000Z,63584
2023-05-09T08:55:52.000Z,50080
2023-05-09T08:59:42.000Z,44096
2023-05-09T09:03:32.000Z,70752
2023-05-09T09:04:48.000Z,64096
2023-05-09T09:09:54.000Z,43968
2023-05-09T09:13:43.000Z,64224
2023-05-09T09:15:00.000Z,49632
2023-05-09T09:21:22.000Z,33440
2023-05-09T09:22:39.000Z,33952
2023-05-09T09:23:56.000Z,32352
2023-05-09T09:25:12.000Z,32928
2023-05-09T09:26:29.000Z,30592
2023-05-09T09:27:44.000Z,29728
2023-05-09T09:29:01.000Z,28640
2023-05-09T09:31:34.000Z,23680
2023-05-09T09:35:24.000Z,18624
2023-05-09T09:37:57.000Z,18656
2023-05-09T09:46:52.000Z,58400
2023-05-09T09:50:41.000Z,65056
2023-05-09T09:51:58.000Z,52256
2023-05-09T09:54:31.000Z,45184
2023-05-09T09:55:48.000Z,44032
2023-05-09T09:57:04.000Z,43200
2023-05-09T09:58:21.000Z,39776
2023-05-09T09:59:37.000Z,35360
2023-05-09T10:00:54.000Z,31968
2023-05-09T10:02:10.000Z,28832
2023-05-09T10:03:27.000Z,25952
2023-05-09T10:04:43.000Z,24000
2023-05-09T10:05:59.000Z,22816
2023-05-09T10:08:32.000Z,20064
2023-05-09T10:09:49.000Z,18016
2023-05-09T10:12:22.000Z,16416
2023-05-09T10:13:38.000Z,17888
2023-05-09T10:14:55.000Z,20224
2023-05-09T10:18:44.000Z,19712
2023-05-09T10:20:01.000Z,18976
2023-05-09T10:21:17.000Z,18400
2023-05-09T10:22:33.000Z,17344
2023-05-09T10:23:50.000Z,16640
2023-05-09T10:26:23.000Z,14780
2023-05-09T10:27:39.000Z,14468
2023-05-09T10:28:56.000Z,14544
2023-05-09T10:30:13.000Z,16416
2023-05-09T10:31:29.000Z,19232
2023-05-09T10:32:46.000Z,22144
2023-05-09T10:34:02.000Z,24256
2023-05-09T10:35:19.000Z,25504
2023-05-09T10:37:52.000Z,33536
2023-05-09T10:39:08.000Z,38112
2023-05-09T10:41:41.000Z,41984
2023-05-09T10:42:57.000Z,42464
2023-05-09T10:45:30.000Z,37184
2023-05-09T10:46:47.000Z,34624
2023-05-09T10:48:03.000Z,32320
2023-05-09T10:49:20.000Z,28800
2023-05-09T10:50:36.000Z,25536
2023-05-09T10:53:10.000Z,23424
2023-05-09T10:54:26.000Z,23936
2023-05-09T10:59:31.000Z,33728
2023-05-09T11:07:10.000Z,75296
2023-05-09T11:09:42.000Z,85312
2023-05-09T11:10:58.000Z,78880
2023-05-09T11:12:15.000Z,80640
2023-05-09T11:13:31.000Z,90432
2023-05-09T11:14:48.000Z,85568
2023-05-09T11:16:04.000Z,82400
2023-05-09T11:18:37.000Z,92640
2023-05-09T11:19:54.000Z,71840
2023-05-09T11:21:11.000Z,73024
2023-05-09T11:22:27.000Z,83648
2023-05-09T11:23:44.000Z,70912
2023-05-09T11:25:00.000Z,71200
2023-05-09T11:26:17.000Z,60544
2023-05-09T11:27:32.000Z,59232
2023-05-09T11:28:49.000Z,55904
2023-05-09T11:30:06.000Z,56832
2023-05-09T11:31:22.000Z,53440
2023-05-09T11:32:39.000Z,44800
2023-05-09T11:35:12.000Z,32608
2023-05-09T11:40:18.000Z,28640
2023-05-09T11:41:34.000Z,28576
2023-05-09T11:46:41.000Z,27712
2023-05-09T11:47:57.000Z,28928
2023-05-09T11:49:13.000Z,29280
2023-05-09T11:50:29.000Z,30656
2023-05-09T11:53:02.000Z,36192
2023-05-09T11:54:19.000Z,37696
2023-05-09T11:55:36.000Z,37472
2023-05-09T11:58:09.000Z,40896
2023-05-09T11:59:25.000Z,44704
2023-05-09T12:01:58.000Z,48064
2023-05-09T12:03:15.000Z,48416
2023-05-09T12:04:31.000Z,49024
2023-05-09T12:05:47.000Z,48928
2023-05-09T12:08:20.000Z,49152
2023-05-09T12:12:10.000Z,53216
2023-05-09T12:13:26.000Z,57600
2023-05-09T12:14:43.000Z,59136
2023-05-09T12:17:16.000Z,95552
2023-05-09T12:18:32.000Z,86688
2023-05-09T12:21:06.000Z,69600
2023-05-09T12:22:22.000Z,65280
2023-05-09T12:24:54.000Z,80704
2023-05-09T12:26:11.000Z,65568
2023-05-09T12:27:28.000Z,60512
2023-05-09T12:30:01.000Z,50784
2023-05-09T12:32:34.000Z,54752
2023-05-09T12:33:50.000Z,55392
2023-05-09T12:35:07.000Z,51456
2023-05-09T12:37:40.000Z,43904
2023-05-09T12:40:13.000Z,37728
2023-05-09T12:41:29.000Z,36256
2023-05-09T12:44:02.000Z,36192
2023-05-09T12:47:51.000Z,31232
2023-05-09T12:50:24.000Z,31328
2023-05-09T12:51:41.000Z,33504
2023-05-09T12:52:58.000Z,39424
2023-05-09T12:55:31.000Z,49440
2023-05-09T12:56:47.000Z,48384
2023-05-09T12:58:04.000Z,46944
2023-05-09T12:59:20.000Z,46048
2023-05-09T13:00:36.000Z,46624
2023-05-09T13:04:26.000Z,75264
2023-05-09T13:05:42.000Z,72640
2023-05-09T13:06:59.000Z,56448
2023-05-09T13:08:15.000Z,50816
2023-05-09T13:10:48.000Z,49600
2023-05-09T13:12:05.000Z,41920
2023-05-09T13:13:21.000Z,38784
2023-05-09T13:14:38.000Z,37280
2023-05-09T13:15:54.000Z,35648
2023-05-09T13:17:11.000Z,33408
2023-05-09T13:19:43.000Z,25440
2023-05-09T13:21:00.000Z,22720
2023-05-09T13:22:16.000Z,20448
2023-05-09T13:23:33.000Z,18784
2023-05-09T13:26:06.000Z,18912
2023-05-09T13:27:23.000Z,21024
2023-05-09T13:28:39.000Z,25536
2023-05-09T13:29:56.000Z,29600
2023-05-09T13:33:45.000Z,27840
2023-05-09T13:35:01.000Z,23200
2023-05-09T13:36:18.000Z,20064
2023-05-09T13:37:34.000Z,17344
2023-05-09T13:38:51.000Z,15228
2023-05-09T13:40:07.000Z,13816
2023-05-09T13:42:40.000Z,10448
2023-05-09T13:43:57.000Z,8440
2023-05-09T13:45:13.000Z,6824
2023-05-09T13:46:30.000Z,5868
2023-05-09T13:49:03.000Z,5500
2023-05-09T13:50:19.000Z,6404
2023-05-09T13:51:36.000Z,8036
2023-05-09T13:52:52.000Z,10016
2023-05-09T13:54:08.000Z,12220
2023-05-09T13:57:58.000Z,13448
2023-05-09T13:59:14.000Z,13500
2023-05-09T14:03:04.000Z,14376
2023-05-09T14:04:21.000Z,16288
2023-05-09T14:05:37.000Z,17888
2023-05-09T14:06:54.000Z,17984
2023-05-09T14:09:27.000Z,15388
2023-05-09T14:12:00.000Z,12728
2023-05-09T14:13:16.000Z,10992
2023-05-09T14:17:05.000Z,6800
2023-05-09T14:18:22.000Z,6368
2023-05-09T14:19:38.000Z,6328
2023-05-09T14:20:55.000Z,6244
2023-05-09T14:22:11.000Z,5980
2023-05-09T14:23:28.000Z,5688
2023-05-09T14:24:44.000Z,5480
2023-05-09T14:26:01.000Z,5272
2023-05-09T14:28:34.000Z,4788
2023-05-09T14:29:50.000Z,4436
2023-05-09T14:31:06.000Z,4152
2023-05-09T14:32:23.000Z,4064
2023-05-09T14:33:39.000Z,4116
2023-05-09T14:34:56.000Z,4208
2023-05-09T14:36:13.000Z,4388
2023-05-09T14:37:29.000Z,4684
2023-05-09T14:38:46.000Z,5260
2023-05-09T14:40:02.000Z,5984
2023-05-09T14:41:19.000Z,6300
2023-05-09T14:42:35.000Z,6168
2023-05-09T14:45:08.000Z,5316
2023-05-09T15:00:25.000Z,10736
2023-05-09T15:01:42.000Z,10016
2023-05-09T15:02:58.000Z,8404
2023-05-09T15:06:47.000Z,4732
2023-05-09T15:08:04.000Z,4260
2023-05-09T15:11:53.000Z,2832
2023-05-09T15:14:27.000Z,2376
2023-05-09T15:38:41.000Z,5816
2023-05-09T15:46:20.000Z,7112
2023-05-09T15:53:58.000Z,6476
2023-05-09T16:16:55.000Z,6328
2023-05-09T16:24:34.000Z,6292
2023-05-09T16:29:39.000Z,4900
2023-05-09T16:30:55.000Z,4744
2023-05-09T16:32:12.000Z,4552
2023-05-09T16:37:18.000Z,4324
2023-05-09T16:39:51.000Z,4668
2023-05-09T16:47:30.000Z,4992
2023-05-09T16:48:46.000Z,4756
2023-05-09T16:55:09.000Z,4092
2023-05-09T16:57:42.000Z,4108
2023-05-09T16:58:58.000Z,4368
2023-05-09T17:00:15.000Z,4204
2023-05-09T17:01:31.000Z,4100
2023-05-09T17:02:48.000Z,4068
2023-05-09T17:05:21.000Z,3736
2023-05-09T17:09:10.000Z,2840
2023-05-09T17:18:06.000Z,2600
2023-05-09T17:24:28.000Z,3440
2023-05-09T17:33:23.000Z,3144
2023-05-09T17:34:40.000Z,3064
2023-05-09T17:38:29.000Z,2664
2023-05-09T17:41:03.000Z,2116
2023-05-09T17:47:24.000Z,2048
2023-05-09T17:48:41.000Z,1932
2023-05-09T17:49:58.000Z,1840
2023-05-09T17:51:14.000Z,1788
2023-05-09T17:52:31.000Z,1796
2023-05-09T17:55:04.000Z,1648
2023-05-09T17:56:20.000Z,1524
2023-05-09T17:57:37.000Z,1456
2023-05-09T18:01:26.000Z,1448
2023-05-09T18:10:21.000Z,1444
2023-05-09T18:11:38.000Z,1432
2023-05-09T18:19:17.000Z,812
2023-05-09T18:20:33.000Z,672
2023-05-09T18:26:56.000Z,668
2023-05-09T18:28:12.000Z,588
2023-05-09T18:29:29.000Z,524
2023-05-09T18:34:35.000Z,464
2023-05-09T18:38:24.000Z,408
2023-05-09T18:47:19.000Z,104
2023-05-09T18:49:53.000Z,52
2023-05-09T18:57:32.000Z,48
2023-05-09T19:01:21.000Z,64
2023-05-09T19:05:10.000Z,68
2023-05-09T19:06:27.000Z,60
2023-05-09T19:35:47.000Z,0
2023-05-09T20:06:23.000Z,0
2023-05-09T20:14:03.000Z,0
2023-05-09T20:44:39.000Z,0
2023-05-09T20:52:17.000Z,0
2023-05-09T20:59:56.000Z,0
2023-05-09T21:22:53.000Z,0
2023-05-09T21:30:31.000Z,0
2023-05-09T22:01:08.000Z,0
2023-05-09T22:08:47.000Z,0
2023-05-09T22:47:03.000Z,0
2023-05-09T22:54:41.000Z,0
2023-05-09T23:25:17.000Z,0
2023-05-09T23:32:56.000Z,0
